createdAt,value
2023-04-29T00:00:43.904Z,7.37
2023-04-29T00:03:10.634Z,7.27
2023-04-29T00:05:37.544Z,6.77
2023-04-29T00:08:04.843Z,7.13
2023-04-29T00:10:31.456Z,7.50
2023-04-29T00:12:57.991Z,7.47
2023-04-29T00:15:24.481Z,6.80
2023-04-29T00:17:51.074Z,7.00
2023-04-29T00:20:17.809Z,7.03
2023-04-29T00:22:45.117Z,6.93
2023-04-29T00:25:12.316Z,7.43
2023-04-29T00:27:39.566Z,7.77
2023-04-29T00:30:08.230Z,6.70
2023-04-29T00:32:35.010Z,7.13
2023-04-29T00:35:01.855Z,7.20
2023-04-29T00:37:28.969Z,7.50
2023-04-29T00:39:55.465Z,7.13
2023-04-29T00:42:22.525Z,6.83
2023-04-29T00:44:49.117Z,7.13
2023-04-29T00:47:15.716Z,7.27
2023-04-29T00:49:42.336Z,7.97
2023-04-29T00:52:10.731Z,7.83
2023-04-29T00:54:37.568Z,8.17
2023-04-29T00:57:04.312Z,7.80
2023-04-29T00:59:32.400Z,9.00
2023-04-29T01:02:03.863Z,9.33
2023-04-29T01:04:31.476Z,9.20
2023-04-29T01:07:01.019Z,8.10
2023-04-29T01:09:34.091Z,9.03
2023-04-29T01:12:06.928Z,9.00
2023-04-29T01:14:34.681Z,8.07
2023-04-29T01:17:05.710Z,8.27
2023-04-29T01:19:41.375Z,8.70
2023-04-29T01:22:07.938Z,8.20
2023-04-29T01:24:35.183Z,8.10
2023-04-29T01:27:14.582Z,8.33
2023-04-29T01:29:51.539Z,8.23
2023-04-29T01:32:21.760Z,9.00
2023-04-29T01:34:59.969Z,9.30
2023-04-29T01:37:41.847Z,9.83
2023-04-29T01:40:20.517Z,9.70
2023-04-29T01:43:08.168Z,9.90
2023-04-29T01:45:35.834Z,11.20
2023-04-29T01:48:03.114Z,10.17
2023-04-29T01:50:30.995Z,9.37
2023-04-29T01:53:07.918Z,8.97
2023-04-29T01:55:34.802Z,10.40
2023-04-29T01:58:12.698Z,11.83
2023-04-29T02:00:57.643Z,12.03
2023-04-29T02:03:26.631Z,10.77
2023-04-29T02:05:56.130Z,10.80
2023-04-29T02:08:23.111Z,11.87
2023-04-29T02:10:52.128Z,12.07
2023-04-29T02:13:28.633Z,11.20
2023-04-29T02:15:55.331Z,11.83
2023-04-29T02:18:21.947Z,11.17
2023-04-29T02:20:51.043Z,11.30
2023-04-29T02:23:17.581Z,11.43
2023-04-29T02:25:44.144Z,11.70
2023-04-29T02:28:10.694Z,11.87
2023-04-29T02:30:40.372Z,12.53
2023-04-29T02:33:08.523Z,12.07
2023-04-29T02:35:35.372Z,11.47
2023-04-29T02:38:01.861Z,11.20
2023-04-29T02:40:29.449Z,11.40
2023-04-29T02:42:55.980Z,13.00
2023-04-29T02:45:22.634Z,12.60
2023-04-29T02:47:49.175Z,15.53
2023-04-29T02:50:15.844Z,14.40
2023-04-29T02:52:42.420Z,12.57
2023-04-29T02:55:09.520Z,12.17
2023-04-29T02:57:36.070Z,12.87
2023-04-29T03:00:02.806Z,12.23
2023-04-29T03:02:29.770Z,13.53
2023-04-29T03:04:58.623Z,14.70
2023-04-29T03:07:25.371Z,14.93
2023-04-29T03:09:52.931Z,17.10
2023-04-29T03:12:19.846Z,18.70
2023-04-29T03:14:46.519Z,19.17
2023-04-29T03:17:13.485Z,18.30
2023-04-29T03:19:41.628Z,18.80
2023-04-29T03:22:11.947Z,18.03
2023-04-29T03:24:41.108Z,17.73
2023-04-29T03:27:07.749Z,17.17
2023-04-29T03:29:34.440Z,16.60
2023-04-29T03:32:02.633Z,18.67
2023-04-29T03:34:29.956Z,17.13
2023-04-29T03:37:16.543Z,16.97
2023-04-29T03:39:47.233Z,16.80
2023-04-29T03:42:14.102Z,17.53
2023-04-29T03:44:40.753Z,16.30
2023-04-29T03:47:08.264Z,16.00
2023-04-29T03:49:35.019Z,16.27
2023-04-29T03:52:01.988Z,17.30
2023-04-29T03:54:28.662Z,16.47
2023-04-29T03:56:56.484Z,16.10
2023-04-29T03:59:24.102Z,17.47
2023-04-29T04:01:54.500Z,16.00
2023-04-29T04:04:22.036Z,16.70
2023-04-29T04:06:51.795Z,16.13
2023-04-29T04:09:20.877Z,16.83
2023-04-29T04:11:47.518Z,16.00
2023-04-29T04:14:15.126Z,17.87
2023-04-29T04:16:41.762Z,15.70
2023-04-29T04:19:08.717Z,15.40
2023-04-29T04:21:38.847Z,15.27
2023-04-29T04:24:08.467Z,16.23
2023-04-29T04:26:35.073Z,14.57
2023-04-29T04:29:22.567Z,15.00
2023-04-29T04:31:56.248Z,13.83
2023-04-29T04:34:23.743Z,15.77
2023-04-29T04:36:51.903Z,14.67
2023-04-29T04:39:18.471Z,14.57
2023-04-29T04:41:45.373Z,15.17
2023-04-29T04:44:13.351Z,15.87
2023-04-29T04:47:08.920Z,15.03
2023-04-29T04:50:08.263Z,15.17
2023-04-29T04:52:35.162Z,14.60
2023-04-29T04:55:28.542Z,15.33
2023-04-29T04:57:56.187Z,14.20
2023-04-29T05:00:22.736Z,15.27
2023-04-29T05:02:49.502Z,15.17
2023-04-29T05:05:16.234Z,15.63
2023-04-29T05:07:43.928Z,16.27
2023-04-29T05:10:11.364Z,15.17
2023-04-29T05:12:45.812Z,16.13
2023-04-29T05:15:12.957Z,13.97
2023-04-29T05:17:39.752Z,14.63
2023-04-29T05:20:07.138Z,15.33
2023-04-29T05:22:34.182Z,15.47
2023-04-29T05:25:03.335Z,15.17
2023-04-29T05:27:32.101Z,15.67
2023-04-29T05:29:59.481Z,15.37
2023-04-29T05:32:26.070Z,13.60
2023-04-29T05:34:53.029Z,13.80
2023-04-29T05:37:19.918Z,13.67
2023-04-29T05:40:04.536Z,13.67
2023-04-29T05:42:32.175Z,13.53
2023-04-29T05:44:58.756Z,13.63
2023-04-29T05:47:25.394Z,14.00
2023-04-29T05:49:52.102Z,13.00
2023-04-29T05:52:18.965Z,13.50
2023-04-29T05:54:48.753Z,15.23
2023-04-29T05:57:15.320Z,14.57
2023-04-29T05:59:41.842Z,13.50
2023-04-29T06:02:10.938Z,14.70
2023-04-29T06:04:41.585Z,14.17
2023-04-29T06:07:09.324Z,14.63
2023-04-29T06:10:02.211Z,14.83
2023-04-29T06:12:30.836Z,14.27
2023-04-29T06:14:58.304Z,13.93
2023-04-29T06:17:24.985Z,15.37
2023-04-29T06:19:51.999Z,15.47
2023-04-29T06:22:18.604Z,16.53
2023-04-29T06:24:49.974Z,14.80
2023-04-29T06:27:25.259Z,15.17
2023-04-29T06:29:52.246Z,15.63
2023-04-29T06:32:18.961Z,14.50
2023-04-29T06:34:46.711Z,14.30
2023-04-29T06:37:37.929Z,14.80
2023-04-29T06:40:30.737Z,14.97
2023-04-29T06:43:04.481Z,15.77
2023-04-29T06:45:33.769Z,15.60
2023-04-29T06:48:09.014Z,15.97
2023-04-29T06:50:38.790Z,16.13
2023-04-29T06:53:07.010Z,15.53
2023-04-29T06:55:35.360Z,16.37
2023-04-29T06:58:04.509Z,18.23
2023-04-29T07:00:31.919Z,18.07
2023-04-29T07:02:58.803Z,17.50
2023-04-29T07:05:25.478Z,17.00
2023-04-29T07:07:52.092Z,16.23
2023-04-29T07:10:18.623Z,15.57
2023-04-29T07:12:46.733Z,15.27
2023-04-29T07:15:14.568Z,15.10
2023-04-29T07:17:41.218Z,16.10
2023-04-29T07:20:08.162Z,15.40
2023-04-29T07:22:34.850Z,14.67
2023-04-29T07:25:02.525Z,15.30
2023-04-29T07:27:29.653Z,14.93
2023-04-29T07:29:56.863Z,16.00
2023-04-29T07:32:23.436Z,14.83
2023-04-29T07:34:50.038Z,15.90
2023-04-29T07:37:16.765Z,15.80
2023-04-29T07:39:43.290Z,14.83
2023-04-29T07:42:10.415Z,15.50
2023-04-29T07:44:36.996Z,16.40
2023-04-29T07:47:03.535Z,15.10
2023-04-29T07:49:30.397Z,15.67
2023-04-29T07:51:56.965Z,16.13
2023-04-29T07:54:23.771Z,15.80
2023-04-29T07:56:50.850Z,16.03
2023-04-29T07:59:20.046Z,15.10
2023-04-29T08:01:46.867Z,16.20
2023-04-29T08:04:13.741Z,16.97
2023-04-29T08:06:48.955Z,16.83
2023-04-29T08:09:15.905Z,16.83
2023-04-29T08:11:43.269Z,18.17
2023-04-29T08:14:12.533Z,17.50
2023-04-29T08:16:40.301Z,17.23
2023-04-29T08:19:06.913Z,17.07
2023-04-29T08:21:34.800Z,17.70
2023-04-29T08:24:01.692Z,17.63
2023-04-29T08:26:28.228Z,18.13
2023-04-29T08:28:54.870Z,18.27
2023-04-29T08:31:21.956Z,17.30
2023-04-29T08:33:48.722Z,17.10
2023-04-29T08:36:15.513Z,15.87
2023-04-29T08:38:42.004Z,16.13
2023-04-29T08:41:09.764Z,15.77
2023-04-29T08:43:42.554Z,16.00
2023-04-29T08:46:09.826Z,14.87
2023-04-29T08:48:37.911Z,16.40
2023-04-29T08:51:05.070Z,16.23
2023-04-29T08:53:31.656Z,16.10
2023-04-29T08:55:59.889Z,16.53
2023-04-29T08:58:28.557Z,16.57
2023-04-29T09:00:55.167Z,16.33
2023-04-29T09:03:22.185Z,16.07
2023-04-29T09:05:50.446Z,16.43
2023-04-29T09:08:17.329Z,15.37
2023-04-29T09:10:43.884Z,15.70
2023-04-29T09:13:22.533Z,13.90
2023-04-29T09:15:49.054Z,14.17
2023-04-29T09:18:35.548Z,14.63
2023-04-29T09:21:12.963Z,14.10
2023-04-29T09:23:39.487Z,14.10
2023-04-29T09:26:06.068Z,13.93
2023-04-29T09:28:32.557Z,13.20
2023-04-29T09:30:59.194Z,13.80
2023-04-29T09:33:28.617Z,14.00
2023-04-29T09:35:55.194Z,13.47
2023-04-29T09:38:22.132Z,13.90
2023-04-29T09:40:58.953Z,14.10
2023-04-29T09:43:26.807Z,14.03
2023-04-29T09:45:53.537Z,14.20
2023-04-29T09:48:20.076Z,13.77
2023-04-29T09:50:59.313Z,15.40
2023-04-29T09:53:29.730Z,14.77
2023-04-29T09:55:58.682Z,14.07
2023-04-29T09:58:28.286Z,14.00
2023-04-29T10:00:54.954Z,14.70
2023-04-29T10:03:21.996Z,14.73
2023-04-29T10:05:48.609Z,15.40
2023-04-29T10:08:15.345Z,13.93
2023-04-29T10:10:41.972Z,13.43
2023-04-29T10:13:08.483Z,13.73
2023-04-29T10:15:43.028Z,12.63
2023-04-29T10:18:14.466Z,13.20
2023-04-29T10:20:45.890Z,12.00
2023-04-29T10:23:13.611Z,11.03
2023-04-29T10:25:42.700Z,11.50
2023-04-29T10:28:16.297Z,12.10
2023-04-29T10:30:44.248Z,11.30
2023-04-29T10:33:16.496Z,11.13
2023-04-29T10:35:44.813Z,11.70
2023-04-29T10:38:17.218Z,10.87
2023-04-29T10:40:49.118Z,11.27
2023-04-29T10:43:15.865Z,10.40
2023-04-29T10:45:42.451Z,10.00
2023-04-29T10:48:09.959Z,10.17
2023-04-29T10:50:36.445Z,9.60
2023-04-29T10:53:03.607Z,9.90
2023-04-29T10:55:30.789Z,8.50
2023-04-29T10:57:57.729Z,8.80
2023-04-29T11:00:31.619Z,8.30
2023-04-29T11:03:02.114Z,8.23
2023-04-29T11:05:34.869Z,7.73
2023-04-29T11:08:16.452Z,6.90
2023-04-29T11:10:43.522Z,5.27
2023-04-29T11:13:22.926Z,5.30
2023-04-29T11:15:51.155Z,4.10
2023-04-29T11:18:18.043Z,3.60
2023-04-29T11:21:03.408Z,3.30
2023-04-29T11:23:30.152Z,3.00
2023-04-29T11:25:56.694Z,2.90
2023-04-29T11:28:24.342Z,3.03
2023-04-29T11:30:51.488Z,3.90
2023-04-29T11:33:19.784Z,4.07
2023-04-29T11:35:47.291Z,4.40
2023-04-29T11:38:13.896Z,4.57
2023-04-29T11:40:50.425Z,5.53
2023-04-29T11:43:18.167Z,6.33
2023-04-29T11:45:47.882Z,8.00
2023-04-29T11:48:18.747Z,7.67
2023-04-29T11:50:46.527Z,8.47
2023-04-29T11:53:13.053Z,9.43
2023-04-29T11:55:41.765Z,8.63
2023-04-29T11:58:08.308Z,10.47
2023-04-29T12:00:35.090Z,9.13
2023-04-29T12:03:01.910Z,11.03
2023-04-29T12:05:28.808Z,9.07
2023-04-29T12:07:55.352Z,9.93
2023-04-29T12:10:22.066Z,10.47
2023-04-29T12:12:48.879Z,12.68
2023-04-29T12:15:15.690Z,10.43
2023-04-29T12:17:43.104Z,12.60
2023-04-29T12:20:10.543Z,13.63
2023-04-29T12:22:37.586Z,14.43
2023-04-29T12:25:04.920Z,15.13
2023-04-29T12:27:32.372Z,15.70
2023-04-29T12:29:58.956Z,17.20
2023-04-29T12:32:25.861Z,17.30
2023-04-29T12:34:53.156Z,17.27
2023-04-29T12:37:21.484Z,17.40
2023-04-29T12:39:49.464Z,16.47
2023-04-29T12:42:18.948Z,15.93
2023-04-29T12:44:47.220Z,16.83
2023-04-29T12:47:14.381Z,15.53
2023-04-29T12:49:48.072Z,15.00
2023-04-29T12:52:14.755Z,15.47
2023-04-29T12:54:43.557Z,15.00
2023-04-29T12:57:11.073Z,16.37
2023-04-29T12:59:37.735Z,15.10
2023-04-29T13:02:04.447Z,15.20
2023-04-29T13:04:31.277Z,15.10
2023-04-29T13:07:01.701Z,15.37
2023-04-29T13:09:28.524Z,16.70
2023-04-29T13:11:55.077Z,17.17
2023-04-29T13:14:22.232Z,15.40
2023-04-29T13:16:48.862Z,16.90
2023-04-29T13:19:30.522Z,16.87
2023-04-29T13:22:02.007Z,16.33
2023-04-29T13:24:28.536Z,16.37
2023-04-29T13:26:55.077Z,16.07
2023-04-29T13:29:21.628Z,14.70
2023-04-29T13:31:48.268Z,15.30
2023-04-29T13:34:15.015Z,15.83
2023-04-29T13:36:41.600Z,16.40
2023-04-29T13:39:08.537Z,16.10
2023-04-29T13:41:35.625Z,14.93
2023-04-29T13:44:02.779Z,17.00
2023-04-29T13:46:31.494Z,16.93
2023-04-29T13:49:22.519Z,17.93
2023-04-29T13:52:32.370Z,18.20
2023-04-29T13:57:50.360Z,18.60
2023-04-29T13:59:53.384Z,18.63
2023-04-29T14:04:49.891Z,18.63
2023-04-29T14:07:16.792Z,19.03
2023-04-29T14:09:43.276Z,22.13
2023-04-29T14:12:09.808Z,21.20
2023-04-29T14:14:36.358Z,21.43
2023-04-29T14:17:03.769Z,22.33
2023-04-29T14:19:30.331Z,25.90
2023-04-29T14:21:56.827Z,25.83
2023-04-29T14:24:23.413Z,27.83
2023-04-29T14:26:49.954Z,29.30
2023-04-29T14:29:16.526Z,29.87
2023-04-29T14:31:43.086Z,30.43
2023-04-29T14:34:09.660Z,29.47
2023-04-29T14:36:36.198Z,30.37
2023-04-29T14:39:04.327Z,29.73
2023-04-29T14:41:30.895Z,31.17
2023-04-29T14:43:57.384Z,30.77
2023-04-29T14:46:25.231Z,30.00
2023-04-29T14:48:51.896Z,30.50
2023-04-29T14:51:18.427Z,28.53
2023-04-29T14:53:45.116Z,29.27
2023-04-29T14:56:11.717Z,27.80
2023-04-29T14:58:38.223Z,28.70
2023-04-29T15:01:04.785Z,27.87
2023-04-29T15:03:31.781Z,28.60
2023-04-29T15:06:00.675Z,26.83
2023-04-29T15:08:27.645Z,26.07
2023-04-29T15:10:54.162Z,25.07
2023-04-29T15:13:20.692Z,27.00
2023-04-29T15:15:48.400Z,26.00
2023-04-29T15:18:14.999Z,25.37
2023-04-29T15:20:41.610Z,25.53
2023-04-29T15:23:08.831Z,25.07
2023-04-29T15:25:36.252Z,25.87
2023-04-29T15:28:05.059Z,25.53
2023-04-29T15:30:32.331Z,24.87
2023-04-29T15:32:58.895Z,24.37
2023-04-29T15:35:25.592Z,24.03
2023-04-29T15:37:52.097Z,23.93
2023-04-29T15:40:18.706Z,23.87
2023-04-29T15:42:45.383Z,24.73
2023-04-29T15:45:12.301Z,23.00
2023-04-29T15:47:38.982Z,23.70
2023-04-29T15:50:06.097Z,21.60
2023-04-29T15:52:32.620Z,24.63
2023-04-29T15:54:59.309Z,24.07
2023-04-29T15:57:26.283Z,24.87
2023-04-29T15:59:53.087Z,23.13
2023-04-29T16:02:20.472Z,23.17
2023-04-29T16:04:47.067Z,29.63
2023-04-29T16:07:14.025Z,23.03
2023-04-29T16:09:40.557Z,20.67
2023-04-29T16:12:08.096Z,21.27
2023-04-29T16:14:34.617Z,19.27
2023-04-29T16:17:01.401Z,18.73
2023-04-29T16:19:28.269Z,18.53
2023-04-29T16:21:55.574Z,17.13
2023-04-29T16:24:22.204Z,17.60
2023-04-29T16:26:49.548Z,16.73
2023-04-29T16:29:16.161Z,17.07
2023-04-29T16:31:43.716Z,15.97
2023-04-29T16:34:10.673Z,17.50
2023-04-29T16:36:37.592Z,16.53
2023-04-29T16:39:04.763Z,16.70
2023-04-29T16:41:31.554Z,15.90
2023-04-29T16:43:58.517Z,16.53
2023-04-29T16:46:25.143Z,16.13
2023-04-29T16:48:52.119Z,17.00
2023-04-29T16:51:19.030Z,16.90
2023-04-29T16:53:46.009Z,15.87
2023-04-29T16:56:12.561Z,15.17
2023-04-29T16:58:39.096Z,15.77
2023-04-29T17:01:07.287Z,15.63
2023-04-29T17:03:34.570Z,14.80
2023-04-29T17:06:01.298Z,15.90
2023-04-29T17:08:27.944Z,16.77
2023-04-29T17:10:54.456Z,15.97
2023-04-29T17:13:21.394Z,14.83
2023-04-29T17:15:47.966Z,15.23
2023-04-29T17:18:14.489Z,14.50
2023-04-29T17:20:42.105Z,13.77
2023-04-29T17:23:08.870Z,14.40
2023-04-29T17:25:36.989Z,14.13
2023-04-29T17:28:03.819Z,13.77
2023-04-29T17:30:30.336Z,14.00
2023-04-29T17:32:56.985Z,13.00
2023-04-29T17:35:23.479Z,13.27
2023-04-29T17:37:50.030Z,12.70
2023-04-29T17:40:16.536Z,12.70
2023-04-29T17:42:43.115Z,13.50
2023-04-29T17:45:09.901Z,13.03
2023-04-29T17:47:36.576Z,14.37
2023-04-29T17:50:03.501Z,14.53
2023-04-29T17:52:30.058Z,14.17
2023-04-29T17:54:56.564Z,12.63
2023-04-29T17:57:23.068Z,12.60
2023-04-29T17:59:49.654Z,12.23
2023-04-29T18:02:16.413Z,11.27
2023-04-29T18:04:43.139Z,11.63
2023-04-29T18:07:09.653Z,13.07
2023-04-29T18:09:36.211Z,12.93
2023-04-29T18:12:03.109Z,11.03
2023-04-29T18:14:31.012Z,11.43
2023-04-29T18:17:01.197Z,11.27
2023-04-29T18:19:27.966Z,10.83
2023-04-29T18:21:58.201Z,11.70
2023-04-29T18:24:25.769Z,12.27
2023-04-29T18:26:52.280Z,12.73
2023-04-29T18:29:18.782Z,11.57
2023-04-29T18:31:45.489Z,12.80
2023-04-29T18:34:12.041Z,12.00
2023-04-29T18:36:38.596Z,10.20
2023-04-29T18:39:05.111Z,11.63
2023-04-29T18:41:31.777Z,12.83
2023-04-29T18:43:58.325Z,11.77
2023-04-29T18:46:24.909Z,11.87
2023-04-29T18:48:51.886Z,12.10
2023-04-29T18:51:18.498Z,11.00
2023-04-29T18:53:45.016Z,10.57
2023-04-29T18:56:11.582Z,11.37
2023-04-29T18:58:38.158Z,10.10
2023-04-29T19:01:04.876Z,11.07
2023-04-29T19:03:31.603Z,11.10
2023-04-29T19:05:58.273Z,10.30
2023-04-29T19:08:24.948Z,10.63
2023-04-29T19:10:53.447Z,9.70
2023-04-29T19:13:20.078Z,9.83
2023-04-29T19:15:50.531Z,9.20
2023-04-29T19:18:19.755Z,8.97
2023-04-29T19:20:46.802Z,9.23
2023-04-29T19:23:13.324Z,9.40
2023-04-29T19:25:39.927Z,9.90
2023-04-29T19:28:06.557Z,8.90
2023-04-29T19:30:33.550Z,8.50
2023-04-29T19:33:00.192Z,9.20
2023-04-29T19:35:27.038Z,10.67
2023-04-29T19:37:54.818Z,10.43
2023-04-29T19:40:21.400Z,9.90
2023-04-29T19:42:47.926Z,10.20
2023-04-29T19:45:14.561Z,10.37
2023-04-29T19:47:41.188Z,9.20
2023-04-29T19:50:07.897Z,8.70
2023-04-29T19:52:34.588Z,8.00
2023-04-29T19:55:01.167Z,8.20
2023-04-29T19:57:28.371Z,7.70
2023-04-29T19:59:54.995Z,7.77
2023-04-29T20:02:21.939Z,7.53
2023-04-29T20:04:48.532Z,8.33
2023-04-29T20:07:15.102Z,7.77
2023-04-29T20:09:41.648Z,7.60
2023-04-29T20:12:08.202Z,7.70
2023-04-29T20:14:34.765Z,6.87
2023-04-29T20:17:01.502Z,7.13
2023-04-29T20:19:28.295Z,7.10
2023-04-29T20:21:54.887Z,7.70
2023-04-29T20:24:21.677Z,7.00
2023-04-29T20:26:48.204Z,7.20
2023-04-29T20:29:14.744Z,7.37
2023-04-29T20:31:41.386Z,7.20
2023-04-29T20:34:08.017Z,7.03
2023-04-29T20:36:34.655Z,7.30
2023-04-29T20:39:01.486Z,7.20
2023-04-29T20:41:29.100Z,7.80
2023-04-29T20:43:55.917Z,7.80
2023-04-29T20:46:27.071Z,7.27
2023-04-29T20:48:53.878Z,7.70
2023-04-29T20:51:20.527Z,7.07
2023-04-29T20:53:47.649Z,8.17
2023-04-29T20:56:14.451Z,7.87
2023-04-29T20:58:41.005Z,7.27
2023-04-29T21:01:08.234Z,7.67
2023-04-29T21:03:34.858Z,7.53
2023-04-29T21:06:01.469Z,7.07
2023-04-29T21:08:28.061Z,7.27
2023-04-29T21:10:54.662Z,7.10
2023-04-29T21:13:21.220Z,6.93
2023-04-29T21:15:47.944Z,7.17
2023-04-29T21:18:14.613Z,7.63
2023-04-29T21:20:41.105Z,7.10
2023-04-29T21:23:07.658Z,7.20
2023-04-29T21:25:34.254Z,7.33
2023-04-29T21:28:00.811Z,8.33
2023-04-29T21:30:27.405Z,7.70
2023-04-29T21:32:54.317Z,8.87
2023-04-29T21:35:20.952Z,9.20
2023-04-29T21:37:47.601Z,8.87
2023-04-29T21:40:14.537Z,9.93
2023-04-29T21:42:43.185Z,10.33
2023-04-29T21:45:09.942Z,9.53
2023-04-29T21:47:36.568Z,9.10
2023-04-29T21:50:03.154Z,8.90
2023-04-29T21:52:34.897Z,9.03
2023-04-29T21:55:02.274Z,9.20
2023-04-29T21:57:42.664Z,8.70
2023-04-29T22:00:23.398Z,8.83
2023-04-29T22:02:50.047Z,9.33
2023-04-29T22:05:16.567Z,8.57
2023-04-29T22:07:43.145Z,8.20
2023-04-29T22:10:09.721Z,8.60
2023-04-29T22:12:37.107Z,8.20
2023-04-29T22:15:04.242Z,8.33
2023-04-29T22:17:33.431Z,9.30
2023-04-29T22:20:00.020Z,8.77
2023-04-29T22:22:26.560Z,8.67
2023-04-29T22:24:53.062Z,8.40
2023-04-29T22:27:19.622Z,8.87
2023-04-29T22:29:46.164Z,9.03
2023-04-29T22:32:13.397Z,8.40
2023-04-29T22:34:42.666Z,8.30
2023-04-29T22:37:09.190Z,8.43
2023-04-29T22:39:35.726Z,7.93
2023-04-29T22:42:04.342Z,8.43
2023-04-29T22:44:30.938Z,8.47
2023-04-29T22:46:57.542Z,8.90
2023-04-29T22:49:25.160Z,8.47
2023-04-29T22:51:52.094Z,8.50
2023-04-29T22:54:18.597Z,8.10
2023-04-29T22:56:45.105Z,8.57
2023-04-29T22:59:11.768Z,8.57
2023-04-29T23:01:38.653Z,8.00
2023-04-29T23:04:05.301Z,8.80
2023-04-29T23:06:33.992Z,8.37
2023-04-29T23:09:00.577Z,8.77
2023-04-29T23:11:27.126Z,8.33
2023-04-29T23:13:54.721Z,8.60
2023-04-29T23:16:21.401Z,7.83
2023-04-29T23:18:48.073Z,8.33
2023-04-29T23:21:14.574Z,7.60
2023-04-29T23:23:41.107Z,7.97
2023-04-29T23:26:07.677Z,7.60
2023-04-29T23:28:34.166Z,9.10
2023-04-29T23:31:00.801Z,8.20
2023-04-29T23:33:27.366Z,8.73
2023-04-29T23:35:54.025Z,7.07
2023-04-29T23:38:20.559Z,8.00
2023-04-29T23:40:47.184Z,7.97
2023-04-29T23:43:15.048Z,8.67
2023-04-29T23:45:43.636Z,8.30
2023-04-29T23:48:10.672Z,8.30
2023-04-29T23:50:37.235Z,7.57
2023-04-29T23:53:03.811Z,7.90
2023-04-29T23:55:31.589Z,7.50
2023-04-29T23:57:58.351Z,7.50
